This is the latest recevied weather packets stored in our database for station/object IW3HBX-13. If no packets are shown the sender has not sent any weather packets the latest 10 day(s).
| Time | Temp. | Humidity | Pressure | Rain* | Wind** | Luminosity | Snow |
|---|---|---|---|---|---|---|---|
| 1777987447 | 14.44° C | 92% | 1014.4 hPa | 0.51 mm | - | 56 W/m² | - |
| 1777987087 | 14.44° C | 92% | 1014.6 hPa | 0.51 mm | - | 44 W/m² | - |
| 1777986727 | 15° C | 92% | 1014.6 hPa | 0.51 mm | - | 34 W/m² | - |
| 1777986368 | 15° C | 91% | 1014.6 hPa | 0.51 mm | - | 37 W/m² | - |
| 1777985648 | 15° C | 90% | 1014.7 hPa | 0.51 mm | - | 42 W/m² | - |
| 1777985288 | 15° C | 90% | 1014.7 hPa | 0.51 mm | - | 75 W/m² | - |
| 1777984930 | 14.44° C | 90% | 1014.7 hPa | 0.51 mm | - | 79 W/m² | - |
| 1777984569 | 14.44° C | 89% | 1014.8 hPa | 0 mm | - | 56 W/m² | - |
| 1777984209 | 15° C | 89% | 1014.7 hPa | 0 mm | - | 57 W/m² | - |
| 1777983847 | 14.44° C | 88% | 1014.8 hPa | 0 mm | - | 71 W/m² | - |
| 1777983487 | 15° C | 87% | 1014.9 hPa | 0 mm | - | 43 W/m² | - |
| 1777983128 | 15° C | 86% | 1014.8 hPa | 0 mm | - | 50 W/m² | - |
| 1777982767 | 15° C | 84% | 1014.7 hPa | 0 mm | - | 49 W/m² | - |
| 1777982047 | 15.56° C | 81% | 1014.8 hPa | 0 mm | - | 114 W/m² | - |
| 1777981687 | 15.56° C | 80% | 1014.7 hPa | 0 mm | - | 106 W/m² | - |
| 1777981327 | 15.56° C | 81% | 1014.8 hPa | 0 mm | - | 111 W/m² | - |
| 1777980967 | 15.56° C | 80% | 1014.8 hPa | 0 mm | - | 111 W/m² | - |
| 1777980617 | 15.56° C | 79% | 1014.8 hPa | 0 mm | - | 110 W/m² | - |
| 1777980248 | 15.56° C | 82% | 1014.7 hPa | 0 mm | - | 239 W/m² | - |
| 1777979890 | 15.56° C | 81% | 1014.8 hPa | 0 mm | - | 195 W/m² | - |
| 1777979527 | 15.56° C | 82% | 1014.7 hPa | 0 mm | - | 336 W/m² | - |
| 1777979167 | 15.56° C | 82% | 1014.5 hPa | 0 mm | - | 390 W/m² | - |
| 1777978450 | 16.11° C | 80% | 1015 hPa | 0 mm | - | 209 W/m² | - |
| 1777978087 | 16.67° C | 77% | 1015.2 hPa | 0 mm | - | 100 W/m² | - |
| 1777977730 | 16.67° C | 77% | 1015.3 hPa | 0.51 mm | - | 120 W/m² | - |
* Rain latest hour (hover to see other rain measurements)
** Current wind speed in m/s (hover to see current wind gust speed)